EW6767 Weather Reports


time (UTC)temp
F
wind
direction
speed
knots
gust
knots
rain 1hr
in
rain 24hr
in
rain mn
in
humidity
%
barometer
mb
20210920043056 72 242 0.0 0.0 0.00 0.00 0.00 85 1034.1
20210920041548 72 241 0.0 0.0 0.00 0.00 0.00 85 1034.3
20210920040029 72 280 0.0 0.0 0.00 0.00 0.00 85 1034.4
20210920034529 72 280 0.0 0.0 0.00 0.00 0.00 84 1034.3
20210920033030 72 280 0.0 0.0 0.00 0.00 0.00 84 1034.1
20210920031530 72 279 0.0 0.0 0.00 0.00 0.00 83 1034.1
20210920030040 72 280 0.0 0.0 0.00 0.00 0.00 84 1034.0
20210920024523 72 280 0.0 0.0 0.00 0.00 0.00 83 1034.0
20210920023020 72 280 0.0 0.0 0.00 0.00 0.00 84 1034.1
20210920021520 72 280 0.0 0.0 0.00 0.00 0.00 84 1034.0
20210920020030 72 280 0.0 0.0 0.00 0.00 0.00 83 1033.9
20210920014519 73 280 0.0 0.0 0.00 0.00 0.00 84 1033.9
20210920013039 73 280 0.0 0.0 0.00 0.00 0.00 83 1033.9
20210920011539 73 280 0.0 0.0 0.00 0.00 0.00 82 1033.7
20210920010022 74 279 0.0 0.0 0.00 0.00 0.00 81 1033.6
20210920004533 74 280 0.0 0.0 0.00 0.00 0.00 80 1033.4
20210920003046 75 280 0.0 0.0 0.00 0.00 0.00 78 1033.3
20210920001520 76 280 0.0 0.0 0.00 0.00 0.00 75 1033.3
20210920000015 76 280 0.0 0.0 0.00 0.00 0.00 74 1033.3
20210919234514 77 280 0.0 0.0 0.00 0.00 0.00 72 1033.3
20210919233016 79 280 0.0 0.0 0.00 0.00 0.00 70 1033.4
20210919231518 80 280 0.0 0.0 0.00 0.00 0.00 68 1033.5
20210919230015 81 280 0.0 0.0 0.00 0.00 0.00 64 1033.5
20210919224534 83 280 0.0 0.0 0.00 0.00 0.00 61 1033.4
20210919223036 84 280 0.0 0.0 0.00 0.00 0.00 56 1033.4
20210919221514 85 280 0.0 0.0 0.00 0.00 0.00 54 1033.4
20210919220010 86 265 0.0 0.9 0.00 0.00 0.00 52 1033.2
20210919214518 86 298 0.0 0.9 0.00 0.00 0.00 51 1033.3
20210919213020 87 206 0.0 1.7 0.00 0.00 0.00 51 1033.2
20210919211510 88 205 0.0 0.9 0.00 0.00 0.00 50 1033.3
20210919210015 88 183 0.0 1.7 0.00 0.00 0.00 48 1033.2
20210919204515 89 205 0.0 0.9 0.00 0.00 0.00 48 1033.3
20210919203007 89 311 0.9 4.3 0.00 0.00 0.00 46 1033.5
20210919201537 89 221 0.0 1.7 0.00 0.00 0.00 48 1033.6
20210919200011 88 220 0.0 1.7 0.00 0.00 0.00 49 1033.7
20210919194505 89 223 0.0 1.7 0.00 0.00 0.00 47 1033.9
20210919193231 90 242 0.0 2.6 0.00 0.00 0.00 46 1034.0
20210919193002 90 242 0.0 2.6 0.00 0.00 0.00 47 1034.0
20210919191651 91 162 0.9 2.6 0.00 0.00 0.00 45 1034.0
20210919190117 92 275 0.0 4.3 0.00 0.00 0.00 44 1034.2
20210919184618 91 197 0.0 2.6 0.00 0.00 0.00 47 1034.4
20210919183122 89 252 0.0 1.7 0.00 0.00 0.00 49 1034.6
20210919181607 89 212 0.0 0.9 0.00 0.00 0.00 54 1034.8
20210919180101 89 243 0.0 2.6 0.00 0.00 0.00 51 1035.2
20210919174556 88 315 0.9 2.6 0.00 0.00 0.00 50 1035.4
20210919173112 89 314 0.0 2.6 0.00 0.00 0.00 50 1035.5
20210919171612 90 200 0.0 2.6 0.00 0.00 0.00 52 1035.6
20210919170148 89 196 0.0 2.6 0.00 0.00 0.00 51 1035.8
20210919164611 86 165 0.0 1.7 0.00 0.00 0.00 57 1036.0
20210919163105 87 225 0.0 0.9 0.00 0.00 0.00 56 1036.2
20210919161613 87 198 0.0 1.7 0.00 0.00 0.00 56 1036.3
20210919160053 86 219 0.0 0.9 0.00 0.00 0.00 60 1036.3
20210919154604 85 240 0.0 0.9 0.00 0.00 0.00 60 1036.5
20210919153027 84 238 0.0 1.7 0.00 0.00 0.00 61 1036.6
20210919151601 84 327 0.0 2.6 0.00 0.00 0.00 64 1036.6
20210919150018 82 354 0.9 2.6 0.00 0.00 0.00 67 1036.7
20210919144535 79 166 0.0 0.0 0.00 0.00 0.00 73 1036.7
20210919143008 77 166 0.0 0.0 0.00 0.00 0.00 79 1036.8
20210919141503 75 166 0.0 0.0 0.00 0.00 0.00 82 1036.8
20210919140135 73 167 0.0 0.0 0.00 0.00 0.00 85 1036.9
20210919134722 72 166 0.0 0.0 0.00 0.00 0.00 87 1036.8
20210919133154 70 167 0.0 0.0 0.00 0.00 0.00 90 1036.9
20210919131557 69 167 0.0 0.0 0.00 0.00 0.00 93 1036.9
20210919130145 68 167 0.0 0.0 0.00 0.00 0.00 94 1036.9
20210919124651 67 167 0.0 0.0 0.00 0.00 0.00 95 1036.8
20210919123206 65 165 0.0 0.0 0.00 0.00 0.00 95 1036.9
20210919121821 65 165 0.0 0.0 0.00 0.00 0.00 95 1036.8
20210919120059 64 165 0.0 0.0 0.00 0.00 0.00 95 1036.7
20210919114635 64 165 0.0 0.0 0.00 0.00 0.00 95 1036.7
20210919113114 64 165 0.0 0.0 0.00 0.00 0.00 95 1036.6
20210919111635 64 165 0.0 0.0 0.00 0.00 0.00 95 1036.5
20210919110104 64 165 0.0 0.0 0.00 0.00 0.00 95 1036.5
20210919104608 64 165 0.0 0.0 0.00 0.00 0.00 94 1036.4
20210919103110 64 165 0.0 0.0 0.00 0.00 0.00 94 1036.3
20210919101609 64 165 0.0 0.0 0.00 0.00 0.00 94 1036.3
20210919100035 64 165 0.0 0.0 0.00 0.00 0.00 94 1036.2
20210919094555 65 165 0.0 0.0 0.00 0.00 0.00 94 1036.1
20210919093039 65 165 0.0 0.0 0.00 0.00 0.00 94 1035.9
20210919091541 65 165 0.0 0.0 0.00 0.00 0.00 94 1036.0
20210919090108 66 165 0.0 0.0 0.00 0.00 0.00 94 1036.0
20210919084541 66 165 0.0 0.0 0.00 0.00 0.00 94 1035.9
20210919083043 66 165 0.0 0.0 0.00 0.00 0.00 94 1036.0
20210919081533 66 165 0.0 0.0 0.00 0.00 0.00 93 1035.8
20210919080026 67 165 0.0 0.0 0.00 0.00 0.00 93 1035.9
20210919074524 67 165 0.0 0.0 0.00 0.00 0.00 93 1035.9
20210919073021 67 165 0.0 0.0 0.00 0.00 0.00 93 1035.9
20210919071533 67 165 0.0 0.0 0.00 0.00 0.00 93 1036.0
20210919070020 67 165 0.0 0.0 0.00 0.00 0.00 93 1035.8
20210919064536 68 165 0.0 0.0 0.00 0.00 0.00 93 1035.9
20210919063020 68 165 0.0 0.0 0.00 0.00 0.00 93 1036.0
20210919061512 67 165 0.0 0.0 0.00 0.00 0.00 92 1035.9
20210919060019 68 165 0.0 0.0 0.00 0.00 0.00 92 1036.0
20210919054515 68 165 0.0 0.0 0.00 0.00 0.00 91 1036.1
20210919053004 69 165 0.0 0.0 0.00 0.00 0.00 90 1036.0
20210919051505 69 165 0.0 0.0 0.00 0.00 0.00 89 1036.1
20210919050003 69 165 0.0 0.0 0.00 0.00 0.00 90 1036.1
20210919044631 70 1 0.0 0.0 0.00 0.00 0.00 89 1036.1